Tegelen, Netherlands
Current Conditions -  °F | °C
As of 8:20 PM on Friday 28 Nov 2014 (Local Time) from EDLN Reporting Station
Clear Clear  
Wind Chill: 34°   Ceiling: Unl
Heat Index: 41°   Visibility: 6mi
Dew Point: 37°   Wind: 12mph
Humidity: 87%   Direction: 110°ESE
Pressure: 29.85"   Gusts: NA
Location:  51.34°N, 6.14°E
Report Text: EDLN 281920Z 11010KT CAVOK 05/03 Q1011 RMK ATIS Z
Loading
Personal Weather Stations






























Interactive Weather Map New forecast layout! Learn more

10-Day Weather Forecast

Advertisements
Track Severe Weather on mobile